sensor_id;sensor_type;location;lat;lon;timestamp;pressure;altitude;pressure_sealevel;temperature;humidity
28167;BME280;15455;53.376;-6.262;2023-03-11T00:01:48;100553.56;;;-1.73;100.00
28167;BME280;15455;53.376;-6.262;2023-03-11T00:04:33;100549.38;;;-1.71;100.00
28167;BME280;15455;53.376;-6.262;2023-03-11T00:07:18;100548.69;;;-1.67;100.00
28167;BME280;15455;53.376;-6.262;2023-03-11T00:10:05;100540.41;;;-1.61;100.00
28167;BME280;15455;53.376;-6.262;2023-03-11T00:12:51;100540.59;;;-1.57;100.00
28167;BME280;15455;53.376;-6.262;2023-03-11T00:15:37;100526.13;;;-1.56;100.00
28167;BME280;15455;53.376;-6.262;2023-03-11T00:18:25;100527.19;;;-1.51;100.00
28167;BME280;15455;53.376;-6.262;2023-03-11T00:21:16;100535.00;;;-1.48;100.00
28167;BME280;15455;53.376;-6.262;2023-03-11T00:24:02;100529.22;;;-1.44;100.00
28167;BME280;15455;53.376;-6.262;2023-03-11T00:26:48;100520.91;;;-1.38;100.00
28167;BME280;15455;53.376;-6.262;2023-03-11T00:29:34;100531.28;;;-1.35;100.00
28167;BME280;15455;53.376;-6.262;2023-03-11T00:32:19;100533.16;;;-1.31;100.00
28167;BME280;15455;53.376;-6.262;2023-03-11T00:35:05;100523.00;;;-1.29;100.00
28167;BME280;15455;53.376;-6.262;2023-03-11T00:37:54;100513.66;;;-1.27;100.00
28167;BME280;15455;53.376;-6.262;2023-03-11T00:40:40;100514.63;;;-1.25;100.00
28167;BME280;15455;53.376;-6.262;2023-03-11T00:43:26;100519.13;;;-1.19;100.00
28167;BME280;15455;53.376;-6.262;2023-03-11T00:46:11;100534.13;;;-1.08;100.00
28167;BME280;15455;53.376;-6.262;2023-03-11T00:48:57;100536.13;;;-1.00;100.00
28167;BME280;15455;53.376;-6.262;2023-03-11T00:51:42;100532.94;;;-0.95;100.00
28167;BME280;15455;53.376;-6.262;2023-03-11T00:54:29;100525.44;;;-0.90;100.00
28167;BME280;15455;53.376;-6.262;2023-03-11T00:57:14;100522.00;;;-0.91;100.00
28167;BME280;15455;53.376;-6.262;2023-03-11T01:00:01;100522.19;;;-0.86;100.00
28167;BME280;15455;53.376;-6.262;2023-03-11T01:02:49;100519.75;;;-0.83;100.00
28167;BME280;15455;53.376;-6.262;2023-03-11T01:05:34;100526.91;;;-0.74;100.00
28167;BME280;15455;53.376;-6.262;2023-03-11T01:08:20;100518.72;;;-0.65;100.00
28167;BME280;15455;53.376;-6.262;2023-03-11T01:11:06;100513.75;;;-0.61;100.00
28167;BME280;15455;53.376;-6.262;2023-03-11T01:13:51;100516.41;;;-0.59;100.00
28167;BME280;15455;53.376;-6.262;2023-03-11T01:16:38;100514.72;;;-0.59;100.00
28167;BME280;15455;53.376;-6.262;2023-03-11T01:19:23;100511.28;;;-0.59;100.00
28167;BME280;15455;53.376;-6.262;2023-03-11T01:22:10;100508.63;;;-0.61;100.00
28167;BME280;15455;53.376;-6.262;2023-03-11T01:24:55;100514.59;;;-0.62;100.00
28167;BME280;15455;53.376;-6.262;2023-03-11T01:27:41;100514.78;;;-0.57;100.00
28167;BME280;15455;53.376;-6.262;2023-03-11T01:30:28;100504.56;;;-0.56;100.00
28167;BME280;15455;53.376;-6.262;2023-03-11T01:33:17;100499.50;;;-0.54;100.00
28167;BME280;15455;53.376;-6.262;2023-03-11T01:36:02;100493.47;;;-0.56;100.00
28167;BME280;15455;53.376;-6.262;2023-03-11T01:38:48;100481.41;;;-0.59;100.00
28167;BME280;15455;53.376;-6.262;2023-03-11T01:41:33;100486.53;;;-0.59;100.00
28167;BME280;15455;53.376;-6.262;2023-03-11T01:44:20;100487.38;;;-0.58;100.00
28167;BME280;15455;53.376;-6.262;2023-03-11T01:49:55;100475.41;;;-0.59;100.00
28167;BME280;15455;53.376;-6.262;2023-03-11T01:52:41;100472.69;;;-0.62;100.00
28167;BME280;15455;53.376;-6.262;2023-03-11T01:55:29;100464.09;;;-0.64;100.00
28167;BME280;15455;53.376;-6.262;2023-03-11T01:58:21;100457.91;;;-0.70;100.00
28167;BME280;15455;53.376;-6.262;2023-03-11T02:01:09;100468.16;;;-0.70;100.00
28167;BME280;15455;53.376;-6.262;2023-03-11T02:03:56;100467.47;;;-0.65;100.00
28167;BME280;15455;53.376;-6.262;2023-03-11T02:06:42;100465.91;;;-0.62;100.00
28167;BME280;15455;53.376;-6.262;2023-03-11T02:09:29;100470.34;;;-0.58;100.00
28167;BME280;15455;53.376;-6.262;2023-03-11T02:12:15;100466.88;;;-0.58;100.00
28167;BME280;15455;53.376;-6.262;2023-03-11T02:15:03;100467.81;;;-0.56;100.00
28167;BME280;15455;53.376;-6.262;2023-03-11T02:17:51;100469.56;;;-0.55;100.00
28167;BME280;15455;53.376;-6.262;2023-03-11T02:29:35;100496.47;;;-0.44;100.00
28167;BME280;15455;53.376;-6.262;2023-03-11T02:32:22;100498.13;;;-0.46;100.00
28167;BME280;15455;53.376;-6.262;2023-03-11T02:35:08;100503.34;;;-0.43;100.00
28167;BME280;15455;53.376;-6.262;2023-03-11T02:37:54;100497.59;;;-0.37;100.00
28167;BME280;15455;53.376;-6.262;2023-03-11T02:40:47;100488.41;;;-0.30;100.00
28167;BME280;15455;53.376;-6.262;2023-03-11T02:43:40;100481.66;;;-0.28;100.00
28167;BME280;15455;53.376;-6.262;2023-03-11T02:46:27;100480.91;;;-0.26;100.00
28167;BME280;15455;53.376;-6.262;2023-03-11T02:49:13;100476.59;;;-0.27;100.00
28167;BME280;15455;53.376;-6.262;2023-03-11T02:51:59;100472.38;;;-0.25;100.00
28167;BME280;15455;53.376;-6.262;2023-03-11T02:54:47;100475.84;;;-0.24;100.00
28167;BME280;15455;53.376;-6.262;2023-03-11T02:57:33;100468.16;;;-0.24;100.00
28167;BME280;15455;53.376;-6.262;2023-03-11T03:00:18;100472.69;;;-0.17;100.00
28167;BME280;15455;53.376;-6.262;2023-03-11T03:03:15;100472.78;;;-0.14;100.00
28167;BME280;15455;53.376;-6.262;2023-03-11T03:06:00;100469.47;;;-0.11;100.00
28167;BME280;15455;53.376;-6.262;2023-03-11T03:08:45;100460.06;;;-0.11;100.00
28167;BME280;15455;53.376;-6.262;2023-03-11T03:11:31;100471.16;;;-0.12;100.00
28167;BME280;15455;53.376;-6.262;2023-03-11T03:14:16;100472.09;;;-0.10;100.00
28167;BME280;15455;53.376;-6.262;2023-03-11T03:17:02;100472.16;;;-0.08;100.00
28167;BME280;15455;53.376;-6.262;2023-03-11T03:19:48;100480.69;;;-0.08;100.00
28167;BME280;15455;53.376;-6.262;2023-03-11T03:22:33;100471.38;;;-0.06;100.00
28167;BME280;15455;53.376;-6.262;2023-03-11T03:25:19;100483.38;;;-0.05;100.00
28167;BME280;15455;53.376;-6.262;2023-03-11T03:28:05;100476.69;;;-0.01;100.00
28167;BME280;15455;53.376;-6.262;2023-03-11T03:30:54;100480.91;;;-0.02;100.00
28167;BME280;15455;53.376;-6.262;2023-03-11T03:33:39;100480.16;;;0.01;100.00
28167;BME280;15455;53.376;-6.262;2023-03-11T03:36:25;100474.28;;;0.04;100.00
28167;BME280;15455;53.376;-6.262;2023-03-11T03:39:15;100473.50;;;0.06;100.00
28167;BME280;15455;53.376;-6.262;2023-03-11T03:42:06;100467.69;;;0.10;100.00
28167;BME280;15455;53.376;-6.262;2023-03-11T03:44:56;100464.31;;;0.13;100.00
28167;BME280;15455;53.376;-6.262;2023-03-11T03:47:42;100456.69;;;0.14;100.00
28167;BME280;15455;53.376;-6.262;2023-03-11T03:50:28;100454.19;;;0.16;100.00
28167;BME280;15455;53.376;-6.262;2023-03-11T03:53:14;100445.66;;;0.17;100.00
28167;BME280;15455;53.376;-6.262;2023-03-11T03:56:09;100449.22;;;0.21;100.00
28167;BME280;15455;53.376;-6.262;2023-03-11T03:58:55;100451.03;;;0.23;100.00
28167;BME280;15455;53.376;-6.262;2023-03-11T04:01:45;100460.44;;;0.24;100.00
28167;BME280;15455;53.376;-6.262;2023-03-11T04:04:33;100461.34;;;0.25;100.00
28167;BME280;15455;53.376;-6.262;2023-03-11T04:07:19;100449.50;;;0.30;100.00
28167;BME280;15455;53.376;-6.262;2023-03-11T04:10:06;100474.41;;;0.32;100.00
28167;BME280;15455;53.376;-6.262;2023-03-11T04:12:52;100461.69;;;0.36;100.00
28167;BME280;15455;53.376;-6.262;2023-03-11T04:15:38;100459.50;;;0.46;100.00
28167;BME280;15455;53.376;-6.262;2023-03-11T04:18:27;100462.41;;;0.57;100.00
28167;BME280;15455;53.376;-6.262;2023-03-11T04:21:13;100450.00;;;0.69;100.00
28167;BME280;15455;53.376;-6.262;2023-03-11T04:24:00;100442.66;;;0.82;100.00
28167;BME280;15455;53.376;-6.262;2023-03-11T04:26:50;100446.31;;;0.89;100.00
28167;BME280;15455;53.376;-6.262;2023-03-11T04:29:36;100435.50;;;0.99;100.00
28167;BME280;15455;53.376;-6.262;2023-03-11T04:32:22;100431.72;;;1.15;100.00
28167;BME280;15455;53.376;-6.262;2023-03-11T04:35:08;100455.88;;;1.20;100.00
28167;BME280;15455;53.376;-6.262;2023-03-11T04:37:53;100458.75;;;1.31;100.00
28167;BME280;15455;53.376;-6.262;2023-03-11T04:40:40;100464.88;;;1.34;100.00
28167;BME280;15455;53.376;-6.262;2023-03-11T04:43:26;100473.50;;;1.36;100.00
28167;BME280;15455;53.376;-6.262;2023-03-11T04:46:12;100467.44;;;1.34;100.00
28167;BME280;15455;53.376;-6.262;2023-03-11T04:48:58;100475.16;;;1.34;100.00
28167;BME280;15455;53.376;-6.262;2023-03-11T04:51:44;100460.50;;;1.32;100.00
28167;BME280;15455;53.376;-6.262;2023-03-11T04:54:32;100482.03;;;1.35;100.00
28167;BME280;15455;53.376;-6.262;2023-03-11T04:57:18;100489.81;;;1.38;100.00
28167;BME280;15455;53.376;-6.262;2023-03-11T05:00:05;100484.69;;;1.38;100.00
28167;BME280;15455;53.376;-6.262;2023-03-11T05:02:57;100478.63;;;1.36;100.00
28167;BME280;15455;53.376;-6.262;2023-03-11T05:05:43;100491.53;;;1.38;100.00
28167;BME280;15455;53.376;-6.262;2023-03-11T05:08:29;100494.06;;;1.36;100.00
28167;BME280;15455;53.376;-6.262;2023-03-11T05:11:15;100487.16;;;1.35;100.00
28167;BME280;15455;53.376;-6.262;2023-03-11T05:14:04;100484.59;;;1.35;100.00
28167;BME280;15455;53.376;-6.262;2023-03-11T05:16:50;100483.66;;;1.32;100.00
28167;BME280;15455;53.376;-6.262;2023-03-11T05:19:35;100474.13;;;1.29;100.00
28167;BME280;15455;53.376;-6.262;2023-03-11T05:22:27;100467.22;;;1.28;100.00
28167;BME280;15455;53.376;-6.262;2023-03-11T05:25:13;100453.38;;;1.23;100.00
28167;BME280;15455;53.376;-6.262;2023-03-11T05:28:00;100450.81;;;1.23;100.00
28167;BME280;15455;53.376;-6.262;2023-03-11T05:30:46;100447.34;;;1.23;100.00
28167;BME280;15455;53.376;-6.262;2023-03-11T05:33:32;100443.97;;;1.24;100.00
28167;BME280;15455;53.376;-6.262;2023-03-11T05:36:23;100467.97;;;1.24;100.00
28167;BME280;15455;53.376;-6.262;2023-03-11T05:39:09;100462.88;;;1.26;100.00
28167;BME280;15455;53.376;-6.262;2023-03-11T05:41:54;100459.44;;;1.25;100.00
28167;BME280;15455;53.376;-6.262;2023-03-11T05:44:43;100460.47;;;1.30;100.00
28167;BME280;15455;53.376;-6.262;2023-03-11T05:47:29;100457.94;;;1.32;100.00
28167;BME280;15455;53.376;-6.262;2023-03-11T05:50:15;100455.41;;;1.33;100.00
28167;BME280;15455;53.376;-6.262;2023-03-11T05:53:03;100449.53;;;1.37;100.00
28167;BME280;15455;53.376;-6.262;2023-03-11T05:55:56;100452.25;;;1.42;100.00
28167;BME280;15455;53.376;-6.262;2023-03-11T05:58:44;100453.22;;;1.47;100.00
28167;BME280;15455;53.376;-6.262;2023-03-11T06:01:30;100455.88;;;1.49;100.00
28167;BME280;15455;53.376;-6.262;2023-03-11T06:04:16;100451.63;;;1.51;100.00
28167;BME280;15455;53.376;-6.262;2023-03-11T06:07:03;100449.09;;;1.52;100.00
28167;BME280;15455;53.376;-6.262;2023-03-11T06:09:52;100441.41;;;1.52;100.00
28167;BME280;15455;53.376;-6.262;2023-03-11T06:12:38;100439.59;;;1.50;100.00
28167;BME280;15455;53.376;-6.262;2023-03-11T06:15:47;100437.91;;;1.50;100.00
28167;BME280;15455;53.376;-6.262;2023-03-11T06:18:33;100433.63;;;1.51;100.00
28167;BME280;15455;53.376;-6.262;2023-03-11T06:21:21;100431.03;;;1.49;100.00
28167;BME280;15455;53.376;-6.262;2023-03-11T06:24:07;100421.56;;;1.48;100.00
28167;BME280;15455;53.376;-6.262;2023-03-11T06:26:54;100420.72;;;1.49;100.00
28167;BME280;15455;53.376;-6.262;2023-03-11T06:29:42;100419.88;;;1.49;100.00
28167;BME280;15455;53.376;-6.262;2023-03-11T06:32:27;100427.59;;;1.49;100.00
28167;BME280;15455;53.376;-6.262;2023-03-11T06:35:14;100422.31;;;1.46;100.00
28167;BME280;15455;53.376;-6.262;2023-03-11T06:37:59;100416.31;;;1.45;100.00
28167;BME280;15455;53.376;-6.262;2023-03-11T06:40:45;100418.03;;;1.45;100.00
28167;BME280;15455;53.376;-6.262;2023-03-11T06:43:32;100420.59;;;1.45;100.00
28167;BME280;15455;53.376;-6.262;2023-03-11T06:46:20;100420.56;;;1.43;100.00
28167;BME280;15455;53.376;-6.262;2023-03-11T06:49:08;100415.41;;;1.43;100.00
28167;BME280;15455;53.376;-6.262;2023-03-11T06:51:55;100408.56;;;1.44;100.00
28167;BME280;15455;53.376;-6.262;2023-03-11T06:54:41;100415.47;;;1.45;100.00
28167;BME280;15455;53.376;-6.262;2023-03-11T06:57:28;100413.75;;;1.45;100.00
28167;BME280;15455;53.376;-6.262;2023-03-11T07:00:19;100394.97;;;1.48;100.00
28167;BME280;15455;53.376;-6.262;2023-03-11T07:03:10;100395.91;;;1.51;100.00
28167;BME280;15455;53.376;-6.262;2023-03-11T07:05:56;100388.38;;;1.56;100.00
28167;BME280;15455;53.376;-6.262;2023-03-11T07:08:42;100390.09;;;1.57;100.00
28167;BME280;15455;53.376;-6.262;2023-03-11T07:11:28;100391.00;;;1.59;100.00
28167;BME280;15455;53.376;-6.262;2023-03-11T07:14:21;100388.47;;;1.61;100.00
28167;BME280;15455;53.376;-6.262;2023-03-11T07:17:11;100384.19;;;1.61;100.00
28167;BME280;15455;53.376;-6.262;2023-03-11T07:20:04;100386.00;;;1.64;100.00
28167;BME280;15455;53.376;-6.262;2023-03-11T07:22:50;100392.97;;;1.68;100.00
28167;BME280;15455;53.376;-6.262;2023-03-11T07:25:36;100403.34;;;1.71;100.00
28167;BME280;15455;53.376;-6.262;2023-03-11T07:28:23;100394.84;;;1.73;100.00
28167;BME280;15455;53.376;-6.262;2023-03-11T07:31:10;100395.78;;;1.77;100.00
28167;BME280;15455;53.376;-6.262;2023-03-11T07:33:59;100394.31;;;1.85;100.00
28167;BME280;15455;53.376;-6.262;2023-03-11T07:36:44;100397.03;;;1.91;100.00
28167;BME280;15455;53.376;-6.262;2023-03-11T07:39:30;100398.03;;;1.97;100.00
28167;BME280;15455;53.376;-6.262;2023-03-11T07:42:15;100395.69;;;2.06;100.00
28167;BME280;15455;53.376;-6.262;2023-03-11T07:45:04;100387.19;;;2.08;100.00
28167;BME280;15455;53.376;-6.262;2023-03-11T07:47:49;100386.41;;;2.11;100.00
28167;BME280;15455;53.376;-6.262;2023-03-11T07:50:35;100375.41;;;2.17;100.00
28167;BME280;15455;53.376;-6.262;2023-03-11T07:53:20;100377.13;;;2.18;100.00
28167;BME280;15455;53.376;-6.262;2023-03-11T07:56:08;100373.72;;;2.19;100.00
28167;BME280;15455;53.376;-6.262;2023-03-11T07:58:54;100370.41;;;2.23;100.00
28167;BME280;15455;53.376;-6.262;2023-03-11T08:01:40;100367.97;;;2.29;100.00
28167;BME280;15455;53.376;-6.262;2023-03-11T08:04:31;100358.69;;;2.36;100.00
28167;BME280;15455;53.376;-6.262;2023-03-11T08:07:16;100355.50;;;2.46;100.00
28167;BME280;15455;53.376;-6.262;2023-03-11T08:10:02;100348.91;;;2.57;100.00
28167;BME280;15455;53.376;-6.262;2023-03-11T08:12:49;100348.28;;;2.68;100.00
28167;BME280;15455;53.376;-6.262;2023-03-11T08:15:36;100352.78;;;2.76;100.00
28167;BME280;15455;53.376;-6.262;2023-03-11T08:18:21;100341.72;;;2.81;100.00
28167;BME280;15455;53.376;-6.262;2023-03-11T08:21:18;100339.19;;;2.84;100.00
28167;BME280;15455;53.376;-6.262;2023-03-11T08:24:05;100326.31;;;2.84;100.00
28167;BME280;15455;53.376;-6.262;2023-03-11T08:26:51;100327.97;;;2.82;100.00
28167;BME280;15455;53.376;-6.262;2023-03-11T08:29:36;100327.97;;;2.82;100.00
28167;BME280;15455;53.376;-6.262;2023-03-11T08:32:21;100320.38;;;2.86;100.00
28167;BME280;15455;53.376;-6.262;2023-03-11T08:35:09;100324.75;;;2.90;100.00
28167;BME280;15455;53.376;-6.262;2023-03-11T08:37:54;100320.56;;;2.95;100.00
28167;BME280;15455;53.376;-6.262;2023-03-11T08:40:40;100325.84;;;3.02;100.00
28167;BME280;15455;53.376;-6.262;2023-03-11T08:43:26;100317.28;;;3.04;100.00
28167;BME280;15455;53.376;-6.262;2023-03-11T08:46:27;100304.50;;;3.09;100.00
28167;BME280;15455;53.376;-6.262;2023-03-11T08:49:13;100307.09;;;3.10;100.00
28167;BME280;15455;53.376;-6.262;2023-03-11T08:52:00;100289.06;;;3.10;100.00
28167;BME280;15455;53.376;-6.262;2023-03-11T08:54:46;100293.44;;;3.15;100.00
28167;BME280;15455;53.376;-6.262;2023-03-11T08:57:31;100291.81;;;3.18;100.00
28167;BME280;15455;53.376;-6.262;2023-03-11T09:00:17;100296.22;;;3.24;100.00
28167;BME280;15455;53.376;-6.262;2023-03-11T09:03:02;100289.34;;;3.24;100.00
28167;BME280;15455;53.376;-6.262;2023-03-11T09:05:48;100282.59;;;3.29;100.00
28167;BME280;15455;53.376;-6.262;2023-03-11T09:08:34;100281.72;;;3.30;100.00
28167;BME280;15455;53.376;-6.262;2023-03-11T09:11:19;100279.25;;;3.35;100.00
28167;BME280;15455;53.376;-6.262;2023-03-11T09:14:07;100268.13;;;3.39;100.00
28167;BME280;15455;53.376;-6.262;2023-03-11T09:16:52;100252.78;;;3.45;100.00
28167;BME280;15455;53.376;-6.262;2023-03-11T09:19:38;100249.47;;;3.53;100.00
28167;BME280;15455;53.376;-6.262;2023-03-11T09:22:23;100253.97;;;3.63;100.00
28167;BME280;15455;53.376;-6.262;2023-03-11T09:25:10;100266.16;;;3.72;100.00
28167;BME280;15455;53.376;-6.262;2023-03-11T09:27:56;100261.94;;;3.77;100.00
28167;BME280;15455;53.376;-6.262;2023-03-11T09:30:41;100256.06;;;3.86;100.00
28167;BME280;15455;53.376;-6.262;2023-03-11T09:33:27;100255.41;;;3.97;100.00
28167;BME280;15455;53.376;-6.262;2023-03-11T09:36:15;100246.88;;;4.02;100.00
28167;BME280;15455;53.376;-6.262;2023-03-11T09:39:01;100235.84;;;4.12;100.00
28167;BME280;15455;53.376;-6.262;2023-03-11T09:50:32;100231.91;;;4.39;100.00
28167;BME280;15455;53.376;-6.262;2023-03-11T09:53:42;100238.78;;;4.35;100.00
28167;BME280;15455;53.376;-6.262;2023-03-11T09:56:28;100230.13;;;4.34;100.00
28167;BME280;15455;53.376;-6.262;2023-03-11T09:59:29;100226.66;;;4.31;100.00
28167;BME280;15455;53.376;-6.262;2023-03-11T10:02:18;100227.53;;;4.33;100.00
28167;BME280;15455;53.376;-6.262;2023-03-11T10:20:44;100226.66;;;4.31;100.00
28167;BME280;15455;53.376;-6.262;2023-03-11T10:26:52;100229.53;;;4.51;100.00
28167;BME280;15455;53.376;-6.262;2023-03-11T10:32:51;100220.94;;;4.54;100.00
28167;BME280;15455;53.376;-6.262;2023-03-11T10:35:41;100218.28;;;4.50;100.00
28167;BME280;15455;53.376;-6.262;2023-03-11T10:38:33;100228.63;;;4.50;100.00
28167;BME280;15455;53.376;-6.262;2023-03-11T10:44:35;100238.63;;;4.26;100.00
28167;BME280;15455;53.376;-6.262;2023-03-11T10:47:23;100238.47;;;4.15;100.00
28167;BME280;15455;53.376;-6.262;2023-03-11T10:50:15;100244.38;;;4.06;100.00
28167;BME280;15455;53.376;-6.262;2023-03-11T10:53:12;100254.66;;;4.03;100.00
28167;BME280;15455;53.376;-6.262;2023-03-11T10:55:59;100255.47;;;4.00;100.00
28167;BME280;15455;53.376;-6.262;2023-03-11T10:58:48;100255.41;;;3.97;100.00
28167;BME280;15455;53.376;-6.262;2023-03-11T11:01:33;100247.63;;;3.94;100.00
28167;BME280;15455;53.376;-6.262;2023-03-11T11:04:39;100240.69;;;3.92;100.00
28167;BME280;15455;53.376;-6.262;2023-03-11T11:07:33;100238.91;;;3.88;100.00
28167;BME280;15455;53.376;-6.262;2023-03-11T11:10:25;100230.19;;;3.82;100.00
28167;BME280;15455;53.376;-6.262;2023-03-11T11:15:59;100234.44;;;3.79;100.00
28167;BME280;15455;53.376;-6.262;2023-03-11T11:18:46;100242.03;;;3.71;100.00
28167;BME280;15455;53.376;-6.262;2023-03-11T11:21:39;100246.31;;;3.69;100.00
28167;BME280;15455;53.376;-6.262;2023-03-11T11:24:29;100255.72;;;3.64;100.00
28167;BME280;15455;53.376;-6.262;2023-03-11T11:27:21;100247.88;;;3.59;100.00
28167;BME280;15455;53.376;-6.262;2023-03-11T11:32:53;100251.94;;;3.46;100.00
28167;BME280;15455;53.376;-6.262;2023-03-11T11:35:49;100243.28;;;3.43;100.00
28167;BME280;15455;53.376;-6.262;2023-03-11T11:38:36;100240.69;;;3.41;100.00
28167;BME280;15455;53.376;-6.262;2023-03-11T11:41:23;100242.28;;;3.36;100.00
28167;BME280;15455;53.376;-6.262;2023-03-11T11:44:14;100243.09;;;3.34;100.00
28167;BME280;15455;53.376;-6.262;2023-03-11T11:47:13;100244.81;;;3.33;100.00
28167;BME280;15455;53.376;-6.262;2023-03-11T11:50:02;100237.91;;;3.32;100.00
28167;BME280;15455;53.376;-6.262;2023-03-11T11:52:55;100235.22;;;3.26;100.00
28167;BME280;15455;53.376;-6.262;2023-03-11T11:55:50;100235.06;;;3.17;100.00
28167;BME280;15455;53.376;-6.262;2023-03-11T11:58:39;100224.53;;;3.06;100.00
28167;BME280;15455;53.376;-6.262;2023-03-11T12:05:14;100225.41;;;3.06;100.00
28167;BME280;15455;53.376;-6.262;2023-03-11T12:11:06;100212.41;;;3.02;100.00
28167;BME280;15455;53.376;-6.262;2023-03-11T12:17:05;100198.66;;;3.01;100.00
28167;BME280;15455;53.376;-6.262;2023-03-11T12:19:57;100183.19;;;3.01;100.00
28167;BME280;15455;53.376;-6.262;2023-03-11T12:22:54;100179.72;;;2.99;100.00
28167;BME280;15455;53.376;-6.262;2023-03-11T12:31:37;100162.47;;;2.95;100.00
28167;BME280;15455;53.376;-6.262;2023-03-11T12:34:23;100164.13;;;2.93;100.00
28167;BME280;15455;53.376;-6.262;2023-03-11T12:37:12;100150.41;;;2.94;100.00
28167;BME280;15455;53.376;-6.262;2023-03-11T12:39:58;100142.81;;;3.02;100.00
28167;BME280;15455;53.376;-6.262;2023-03-11T12:42:44;100124.91;;;3.09;100.00
28167;BME280;15455;53.376;-6.262;2023-03-11T12:45:47;100124.28;;;3.23;100.00
28167;BME280;15455;53.376;-6.262;2023-03-11T12:48:49;100118.50;;;3.38;100.00
28167;BME280;15455;53.376;-6.262;2023-03-11T13:01:04;100107.81;;;3.70;100.00
28167;BME280;15455;53.376;-6.262;2023-03-11T13:04:02;100108.78;;;3.76;100.00
28167;BME280;15455;53.376;-6.262;2023-03-11T13:13:38;100081.41;;;3.86;100.00
28167;BME280;15455;53.376;-6.262;2023-03-11T13:34:57;100058.19;;;3.88;100.00
28167;BME280;15455;53.376;-6.262;2023-03-11T13:41:00;100041.91;;;3.92;100.00
28167;BME280;15455;53.376;-6.262;2023-03-11T13:43:49;100050.53;;;3.95;100.00
28167;BME280;15455;53.376;-6.262;2023-03-11T13:46:38;100038.56;;;3.99;100.00
28167;BME280;15455;53.376;-6.262;2023-03-11T13:49:34;100022.25;;;4.03;100.00
28167;BME280;15455;53.376;-6.262;2023-03-11T13:52:45;100019.75;;;4.09;100.00
28167;BME280;15455;53.376;-6.262;2023-03-11T13:55:41;100016.41;;;4.18;100.00
28167;BME280;15455;53.376;-6.262;2023-03-11T13:58:30;100009.69;;;4.32;100.00
28167;BME280;15455;53.376;-6.262;2023-03-11T14:01:16;100001.16;;;4.41;100.00
28167;BME280;15455;53.376;-6.262;2023-03-11T14:04:09;100004.72;;;4.51;100.00
28167;BME280;15455;53.376;-6.262;2023-03-11T14:06:55;100005.59;;;4.55;100.00
28167;BME280;15455;53.376;-6.262;2023-03-11T14:09:41;99997.00;;;4.54;100.00
28167;BME280;15455;53.376;-6.262;2023-03-11T14:12:30;99995.25;;;4.55;100.00
28167;BME280;15455;53.376;-6.262;2023-03-11T14:15:23;99992.66;;;4.51;100.00
28167;BME280;15455;53.376;-6.262;2023-03-11T14:21:20;99980.63;;;4.54;100.00
28167;BME280;15455;53.376;-6.262;2023-03-11T14:24:24;99975.47;;;4.55;100.00
28167;BME280;15455;53.376;-6.262;2023-03-11T14:27:13;99975.53;;;4.64;100.00
28167;BME280;15455;53.376;-6.262;2023-03-11T14:30:00;99976.50;;;4.74;100.00
28167;BME280;15455;53.376;-6.262;2023-03-11T14:32:58;99965.34;;;4.80;100.00
28167;BME280;15455;53.376;-6.262;2023-03-11T14:35:55;99961.03;;;4.82;100.00
28167;BME280;15455;53.376;-6.262;2023-03-11T14:38:42;99954.22;;;4.87;100.00
28167;BME280;15455;53.376;-6.262;2023-03-11T14:41:28;99956.00;;;4.94;100.00
28167;BME280;15455;53.376;-6.262;2023-03-11T14:44:14;99946.59;;;5.06;100.00
28167;BME280;15455;53.376;-6.262;2023-03-11T14:47:42;99944.00;;;5.07;100.00
28167;BME280;15455;53.376;-6.262;2023-03-11T14:50:28;99936.28;;;5.12;100.00
28167;BME280;15455;53.376;-6.262;2023-03-11T14:53:34;99938.84;;;5.10;100.00
28167;BME280;15455;53.376;-6.262;2023-03-11T14:56:24;99937.97;;;5.07;100.00
28167;BME280;15455;53.376;-6.262;2023-03-11T14:59:15;99931.91;;;5.00;100.00
28167;BME280;15455;53.376;-6.262;2023-03-11T15:02:42;99922.38;;;4.93;100.00
28167;BME280;15455;53.376;-6.262;2023-03-11T15:05:45;99916.28;;;4.87;100.00
28167;BME280;15455;53.376;-6.262;2023-03-11T15:08:36;99916.31;;;4.92;100.00
28167;BME280;15455;53.376;-6.262;2023-03-11T15:11:27;99921.50;;;4.95;100.00
28167;BME280;15455;53.376;-6.262;2023-03-11T15:17:24;99907.75;;;5.01;100.00
28167;BME280;15455;53.376;-6.262;2023-03-11T15:20:34;99902.59;;;5.04;100.00
28167;BME280;15455;53.376;-6.262;2023-03-11T15:23:21;99906.91;;;5.02;100.00
28167;BME280;15455;53.376;-6.262;2023-03-11T15:26:17;99904.31;;;5.03;100.00
28167;BME280;15455;53.376;-6.262;2023-03-11T15:29:12;99890.56;;;5.06;100.00
28167;BME280;15455;53.376;-6.262;2023-03-11T15:31:59;99891.41;;;5.08;100.00
28167;BME280;15455;53.376;-6.262;2023-03-11T15:34:58;99891.47;;;5.14;100.00
28167;BME280;15455;53.376;-6.262;2023-03-11T15:37:45;99888.91;;;5.17;100.00
28167;BME280;15455;53.376;-6.262;2023-03-11T15:40:32;99889.75;;;5.16;100.00
28167;BME280;15455;53.376;-6.262;2023-03-11T15:43:32;99876.84;;;5.24;100.00
28167;BME280;15455;53.376;-6.262;2023-03-11T15:46:18;99883.78;;;5.30;100.00
28167;BME280;15455;53.376;-6.262;2023-03-11T15:49:09;99878.59;;;5.30;100.00
28167;BME280;15455;53.376;-6.262;2023-03-11T15:52:00;99878.66;;;5.36;100.00
28167;BME280;15455;53.376;-6.262;2023-03-11T15:54:46;99864.81;;;5.35;100.00
28167;BME280;15455;53.376;-6.262;2023-03-11T15:57:39;99860.53;;;5.37;100.00
28167;BME280;15455;53.376;-6.262;2023-03-11T16:00:25;99860.56;;;5.45;100.00
28167;BME280;15455;53.376;-6.262;2023-03-11T16:03:11;99862.31;;;5.51;100.00
28167;BME280;15455;53.376;-6.262;2023-03-11T16:05:57;99849.38;;;5.49;100.00
28167;BME280;15455;53.376;-6.262;2023-03-11T16:08:42;99851.06;;;5.47;100.00
28167;BME280;15455;53.376;-6.262;2023-03-11T16:11:29;99839.84;;;5.42;100.00
28167;BME280;15455;53.376;-6.262;2023-03-11T16:14:18;99841.59;;;5.49;100.00
28167;BME280;15455;53.376;-6.262;2023-03-11T16:17:05;99836.44;;;5.48;100.00
28167;BME280;15455;53.376;-6.262;2023-03-11T16:19:50;99831.25;;;5.46;100.00